Etusivu
METAR-TAF:

METAR-TAF

Lentoasemat :

Payerne, Sveitsi

Leveyspiiri: 46-49N, Pituuspiiri: 006-57E, korkeus merenpinnasta: 490 m

Tämänhetkinen sää

Tämä raportti tehtiin 36 minuuttia sitten, kello 10.20 UTC
Tuuli 1 kn eri suunnista
Lämpötila 13°C
Kosteus 51%
Ilmanpaine 1024 hPa
Näkyvyys 10 km tai enemmän
ei pilviä alle 1500 m:ssä eikä cumulonimbus-pilviä

METAR: LSMP 241020Z VRB01KT CAVOK 13/03 Q1024 RMK BLU

Aika: 11:56 (10:56 UTC)


TAF: puuttuu

Säähavainnot ja -ennusteet yli 4000 lentoasemalta (METAR- ja TAF-raportit).

Käytössä olevat sääasemat on merkitty karttaan keltaisilla ja punaisilla pisteillä.

Aseta hiiri pisteen päälle nähdäksesi sääaseman nimen.

Klikkaa sitten nähdäksesi säähavainnot ja -ennusteet.

Kartan vaihtaminen: klikkaa mustalla rastilla varustettuja vihreitä pisteitä, niin voit zoomata sisään; viivalla varustettua vihreää pistettä, niin voit zoomata ulos tai vihreitä nuolia, niin pääset viereisille kartoille.


METAR-TAF: